createdAt,value
2017-10-30T00:02:27.443Z,87.10
2017-10-30T00:05:02.399Z,87.25
2017-10-30T00:07:37.059Z,87.28
2017-10-30T00:10:11.870Z,87.22
2017-10-30T00:12:46.595Z,87.55
2017-10-30T00:15:21.318Z,87.79
2017-10-30T00:17:56.080Z,88.01
2017-10-30T00:20:30.869Z,87.89
2017-10-30T00:23:05.481Z,87.67
2017-10-30T00:25:40.146Z,87.73
2017-10-30T00:28:14.511Z,87.74
2017-10-30T00:30:49.378Z,87.71
2017-10-30T00:33:24.159Z,87.77
2017-10-30T00:35:59.119Z,87.85
2017-10-30T00:38:33.742Z,87.92
2017-10-30T00:41:08.635Z,87.72
2017-10-30T00:43:44.227Z,87.79
2017-10-30T00:46:19.270Z,87.53
2017-10-30T00:48:54.206Z,87.46
2017-10-30T00:51:28.855Z,87.20
2017-10-30T00:54:04.390Z,87.32
2017-10-30T00:56:39.171Z,87.00
2017-10-30T00:59:13.871Z,87.12
2017-10-30T01:01:49.706Z,87.54
2017-10-30T01:04:24.318Z,87.85
2017-10-30T01:06:59.042Z,88.21
2017-10-30T01:09:33.834Z,88.24
2017-10-30T01:12:08.935Z,88.39
2017-10-30T01:14:43.584Z,88.55
2017-10-30T01:17:19.588Z,88.46
2017-10-30T01:19:55.239Z,88.29
2017-10-30T01:22:30.192Z,88.60
2017-10-30T01:25:04.731Z,88.74
2017-10-30T01:27:39.419Z,88.64
2017-10-30T01:30:14.151Z,88.09
2017-10-30T01:32:48.811Z,87.97
2017-10-30T01:35:23.567Z,88.15
2017-10-30T01:37:58.279Z,88.32
2017-10-30T01:40:32.991Z,88.43
2017-10-30T01:43:07.687Z,88.46
2017-10-30T01:45:42.375Z,88.64
2017-10-30T01:48:16.775Z,88.73
2017-10-30T01:50:51.836Z,88.78
2017-10-30T01:53:26.424Z,88.77
2017-10-30T01:56:00.787Z,88.88
2017-10-30T01:58:35.236Z,88.92
2017-10-30T02:01:11.382Z,88.87
2017-10-30T02:03:46.311Z,88.62
2017-10-30T02:06:21.126Z,88.42
2017-10-30T02:08:56.018Z,88.47
2017-10-30T02:11:30.478Z,88.52
2017-10-30T02:14:06.635Z,88.49
2017-10-30T02:16:41.246Z,88.46
2017-10-30T02:19:16.551Z,88.27
2017-10-30T02:21:51.290Z,88.06
2017-10-30T02:24:25.838Z,88.27
2017-10-30T02:27:00.527Z,88.50
2017-10-30T02:29:34.980Z,88.56
2017-10-30T02:32:09.468Z,88.52
2017-10-30T02:34:43.964Z,88.65
2017-10-30T02:37:18.623Z,88.78
2017-10-30T02:39:53.263Z,88.95
2017-10-30T02:42:28.008Z,88.92
2017-10-30T02:45:02.647Z,89.05
2017-10-30T02:47:37.408Z,88.68
2017-10-30T02:50:12.061Z,88.60
2017-10-30T02:52:46.791Z,88.58
2017-10-30T02:55:21.515Z,88.31
2017-10-30T02:57:56.167Z,88.05
2017-10-30T03:00:30.847Z,88.21
2017-10-30T03:03:05.519Z,88.41
2017-10-30T03:05:40.179Z,88.50
2017-10-30T03:08:14.739Z,88.49
2017-10-30T03:10:49.379Z,88.52
2017-10-30T03:13:24.224Z,88.31
2017-10-30T03:15:58.934Z,87.93
2017-10-30T03:18:33.699Z,87.74
2017-10-30T03:21:08.286Z,87.66
2017-10-30T03:23:42.750Z,87.81
2017-10-30T03:26:17.243Z,88.06
2017-10-30T03:28:51.687Z,88.14
2017-10-30T03:31:26.503Z,88.11
2017-10-30T03:34:01.255Z,87.80
2017-10-30T03:36:36.079Z,87.65
2017-10-30T03:39:10.466Z,87.49
2017-10-30T03:41:45.386Z,87.50
2017-10-30T03:44:20.020Z,87.60
2017-10-30T03:46:54.723Z,87.71
2017-10-30T03:49:28.895Z,87.83
2017-10-30T03:52:03.676Z,87.88
2017-10-30T03:54:38.582Z,88.20
2017-10-30T03:57:13.308Z,88.06
2017-10-30T03:59:47.599Z,88.04
2017-10-30T04:02:22.241Z,88.03
2017-10-30T04:04:56.908Z,87.98
2017-10-30T04:07:31.951Z,88.17
2017-10-30T04:10:06.619Z,88.00
2017-10-30T04:12:42.318Z,88.04
2017-10-30T04:15:17.140Z,87.96
2017-10-30T04:17:52.979Z,88.20
2017-10-30T04:20:28.062Z,88.09
2017-10-30T04:23:02.766Z,87.92
2017-10-30T04:25:37.487Z,87.93
2017-10-30T04:28:12.168Z,87.96
2017-10-30T04:30:46.803Z,87.84
2017-10-30T04:33:21.571Z,87.94
2017-10-30T04:35:56.074Z,88.12
2017-10-30T04:38:30.913Z,88.29
2017-10-30T04:41:05.642Z,88.52
2017-10-30T04:43:40.464Z,88.58
2017-10-30T04:46:15.255Z,88.86
2017-10-30T04:48:49.962Z,88.76
2017-10-30T04:51:24.667Z,88.80
2017-10-30T04:53:59.523Z,88.81
2017-10-30T04:56:34.511Z,88.57
2017-10-30T04:59:09.443Z,88.35
2017-10-30T05:01:43.914Z,88.54
2017-10-30T05:04:18.571Z,88.51
2017-10-30T05:06:53.402Z,88.51
2017-10-30T05:09:28.159Z,88.08
2017-10-30T05:12:02.838Z,87.94
2017-10-30T05:14:37.523Z,87.90
2017-10-30T05:17:12.195Z,87.93
2017-10-30T05:19:46.882Z,87.96
2017-10-30T05:22:21.614Z,87.83
2017-10-30T05:24:56.358Z,87.86
2017-10-30T05:27:31.219Z,87.94
2017-10-30T05:30:06.103Z,88.06
2017-10-30T05:32:41.850Z,88.04
2017-10-30T05:35:16.279Z,88.01
2017-10-30T05:37:51.215Z,87.88
2017-10-30T05:40:25.935Z,87.90
2017-10-30T05:43:00.663Z,87.87
2017-10-30T05:45:35.446Z,88.02
2017-10-30T05:48:10.683Z,87.91
2017-10-30T05:50:45.675Z,87.69
2017-10-30T05:53:20.479Z,87.87
2017-10-30T05:55:55.324Z,88.10
2017-10-30T05:58:30.159Z,88.22
2017-10-30T06:01:05.112Z,88.85
2017-10-30T06:03:39.630Z,88.28
2017-10-30T06:06:14.567Z,87.96
2017-10-30T06:08:48.951Z,89.25
2017-10-30T06:11:23.687Z,90.06
2017-10-30T06:13:58.836Z,89.42
2017-10-30T06:16:33.587Z,87.68
2017-10-30T06:19:08.310Z,84.58
2017-10-30T06:21:43.159Z,84.35
2017-10-30T06:24:17.951Z,85.17
2017-10-30T06:26:53.195Z,86.28
2017-10-30T06:29:28.242Z,87.10
2017-10-30T06:32:03.019Z,87.77
2017-10-30T06:34:37.706Z,88.26
2017-10-30T06:37:12.504Z,88.57
2017-10-30T06:39:47.255Z,88.75
2017-10-30T06:42:22.483Z,88.93
2017-10-30T06:44:57.775Z,88.82
2017-10-30T06:47:32.496Z,88.96
2017-10-30T06:50:07.394Z,88.97
2017-10-30T06:52:42.207Z,88.84
2017-10-30T06:55:16.955Z,88.87
2017-10-30T06:57:51.727Z,89.02
2017-10-30T07:00:26.484Z,89.16
2017-10-30T07:03:01.287Z,89.11
2017-10-30T07:05:36.062Z,88.88
2017-10-30T07:08:10.711Z,88.85
2017-10-30T07:10:45.525Z,88.82
2017-10-30T07:13:20.509Z,88.40
2017-10-30T07:15:54.884Z,88.19
2017-10-30T07:18:29.515Z,87.96
2017-10-30T07:21:03.851Z,88.04
2017-10-30T07:23:38.962Z,88.04
2017-10-30T07:26:13.598Z,88.00
2017-10-30T07:28:48.094Z,88.17
2017-10-30T07:31:22.987Z,87.77
2017-10-30T07:33:57.471Z,87.54
2017-10-30T07:36:32.308Z,87.29
2017-10-30T07:39:07.034Z,86.80
2017-10-30T07:41:41.784Z,86.65
2017-10-30T07:44:16.542Z,86.62
2017-10-30T07:46:51.318Z,86.53
2017-10-30T07:49:26.081Z,86.31
2017-10-30T07:52:00.659Z,86.37
2017-10-30T07:54:35.486Z,86.01
2017-10-30T07:57:10.180Z,85.61
2017-10-30T07:59:44.785Z,85.03
2017-10-30T08:02:19.446Z,84.43
2017-10-30T08:04:54.282Z,84.03
2017-10-30T08:07:29.268Z,83.74
2017-10-30T08:10:03.547Z,83.43
2017-10-30T08:12:38.125Z,82.56
2017-10-30T08:15:12.781Z,82.12
2017-10-30T08:17:47.415Z,81.45
2017-10-30T08:20:21.868Z,81.54
2017-10-30T08:22:56.487Z,81.18
2017-10-30T08:25:31.072Z,80.53
2017-10-30T08:28:05.727Z,81.07
2017-10-30T08:30:40.280Z,80.94
2017-10-30T08:33:14.868Z,80.75
2017-10-30T08:35:49.507Z,80.90
2017-10-30T08:38:24.211Z,80.87
2017-10-30T08:40:58.883Z,80.91
2017-10-30T08:43:33.547Z,80.95
2017-10-30T08:46:08.215Z,80.70
2017-10-30T08:48:42.855Z,80.08
2017-10-30T08:51:17.579Z,79.38
2017-10-30T08:53:52.368Z,78.85
2017-10-30T08:56:27.039Z,78.16
2017-10-30T08:59:01.875Z,78.19
2017-10-30T09:01:36.789Z,77.07
2017-10-30T09:04:11.552Z,74.54
2017-10-30T09:06:46.476Z,74.15
2017-10-30T09:09:21.275Z,73.20
2017-10-30T09:11:55.859Z,74.19
2017-10-30T09:14:30.887Z,72.66
2017-10-30T09:17:05.160Z,72.50
2017-10-30T09:19:39.944Z,71.70
2017-10-30T09:22:14.320Z,72.66
2017-10-30T09:24:48.899Z,70.65
2017-10-30T09:27:23.567Z,68.67
2017-10-30T09:29:58.323Z,68.51
2017-10-30T09:32:32.807Z,69.10
2017-10-30T09:35:07.367Z,68.67
2017-10-30T09:37:42.103Z,68.06
2017-10-30T09:40:16.438Z,68.88
2017-10-30T09:42:51.119Z,69.64
2017-10-30T09:45:25.654Z,68.80
2017-10-30T09:48:00.463Z,68.79
2017-10-30T09:50:35.012Z,68.94
2017-10-30T09:53:09.736Z,69.43
2017-10-30T09:55:44.343Z,69.26
2017-10-30T09:58:19.158Z,69.96
2017-10-30T10:00:53.749Z,69.31
2017-10-30T10:03:28.347Z,68.55
2017-10-30T10:06:03.009Z,67.37
2017-10-30T10:08:37.578Z,67.58
2017-10-30T10:11:12.155Z,67.01
2017-10-30T10:13:47.038Z,66.64
2017-10-30T10:16:21.663Z,67.57
2017-10-30T10:18:56.391Z,66.11
2017-10-30T10:21:30.822Z,65.71
2017-10-30T10:24:05.655Z,63.96
2017-10-30T10:26:40.207Z,64.44
2017-10-30T10:29:14.835Z,62.04
2017-10-30T10:31:49.706Z,61.52
2017-10-30T10:34:24.386Z,61.69
2017-10-30T10:36:59.282Z,62.21
2017-10-30T10:39:33.711Z,61.43
2017-10-30T10:42:08.402Z,60.84
2017-10-30T10:44:42.895Z,61.99
2017-10-30T10:47:17.831Z,63.26
2017-10-30T10:49:53.503Z,60.69
2017-10-30T10:52:27.808Z,61.09
2017-10-30T10:55:02.547Z,61.37
2017-10-30T10:57:37.120Z,61.11
2017-10-30T11:00:11.847Z,61.23
2017-10-30T11:02:46.587Z,61.50
2017-10-30T11:05:21.578Z,61.86
2017-10-30T11:07:57.310Z,62.65
2017-10-30T11:10:31.891Z,60.65
2017-10-30T11:13:06.651Z,61.96
2017-10-30T11:15:41.502Z,64.11
2017-10-30T11:18:16.102Z,63.58
2017-10-30T11:20:50.731Z,63.69
2017-10-30T11:23:25.582Z,64.01
2017-10-30T11:25:59.951Z,64.49
2017-10-30T11:28:34.808Z,62.02
2017-10-30T11:31:09.206Z,61.83
2017-10-30T11:33:44.250Z,62.58
2017-10-30T11:36:18.863Z,63.92
2017-10-30T11:38:53.528Z,64.32
2017-10-30T11:41:27.887Z,65.80
2017-10-30T11:44:03.971Z,66.32
2017-10-30T11:46:38.542Z,65.87
2017-10-30T11:49:14.144Z,65.67
2017-10-30T11:51:48.995Z,65.09
2017-10-30T11:54:23.848Z,65.44
2017-10-30T11:56:58.411Z,64.82
2017-10-30T11:59:33.099Z,65.78
2017-10-30T12:02:07.623Z,64.80
2017-10-30T12:04:41.787Z,64.11
2017-10-30T12:07:16.819Z,63.88
2017-10-30T12:09:52.154Z,64.18
2017-10-30T12:12:26.955Z,63.40
2017-10-30T12:15:01.708Z,64.51
2017-10-30T12:17:36.410Z,64.46
2017-10-30T12:20:11.247Z,62.67
2017-10-30T12:22:46.071Z,64.54
2017-10-30T12:25:20.717Z,64.80
2017-10-30T12:27:55.391Z,65.53
2017-10-30T12:30:29.943Z,61.15
2017-10-30T12:33:03.864Z,61.77
2017-10-30T12:35:39.019Z,57.91
2017-10-30T12:38:14.467Z,57.92
2017-10-30T12:40:49.088Z,58.62
2017-10-30T12:43:23.797Z,60.48
2017-10-30T12:45:59.745Z,59.58
2017-10-30T12:48:34.235Z,60.17
2017-10-30T12:51:10.024Z,57.60
2017-10-30T12:53:44.754Z,58.56
2017-10-30T12:56:19.183Z,59.67
2017-10-30T12:58:54.413Z,62.13
2017-10-30T13:01:28.950Z,64.97
2017-10-30T13:04:03.254Z,69.90
2017-10-30T13:06:38.095Z,71.48
2017-10-30T13:09:12.471Z,73.96
2017-10-30T13:11:48.624Z,73.66
2017-10-30T13:14:23.122Z,74.15
2017-10-30T13:16:57.702Z,74.36
2017-10-30T13:19:32.093Z,75.55
2017-10-30T13:22:07.034Z,76.50
2017-10-30T13:24:42.101Z,74.03
2017-10-30T13:27:16.693Z,74.89
2017-10-30T13:29:51.387Z,73.17
2017-10-30T13:32:26.307Z,73.73
2017-10-30T13:35:00.982Z,72.34
2017-10-30T13:37:36.881Z,72.82
2017-10-30T13:40:12.474Z,73.56
2017-10-30T13:42:47.300Z,74.39
2017-10-30T13:45:22.102Z,74.55
2017-10-30T13:47:56.831Z,75.32
2017-10-30T13:50:31.510Z,76.31
2017-10-30T13:53:07.313Z,76.47
2017-10-30T13:55:42.939Z,77.43
2017-10-30T13:58:17.831Z,78.07
2017-10-30T14:00:52.466Z,77.42
2017-10-30T14:03:27.243Z,77.30
2017-10-30T14:06:02.135Z,78.04
2017-10-30T14:08:36.592Z,78.40
2017-10-30T14:11:11.132Z,78.58
2017-10-30T14:13:46.894Z,79.25
2017-10-30T14:16:22.511Z,80.15
2017-10-30T14:18:57.130Z,80.33
2017-10-30T14:21:31.974Z,80.26
2017-10-30T14:24:06.399Z,80.75
2017-10-30T14:26:44.507Z,80.77
2017-10-30T14:29:19.486Z,79.19
2017-10-30T14:31:54.346Z,81.07
2017-10-30T14:34:28.936Z,78.86
2017-10-30T14:37:03.452Z,76.81
2017-10-30T14:39:37.919Z,78.75
2017-10-30T14:42:12.355Z,76.87
2017-10-30T14:44:47.123Z,76.27
2017-10-30T14:47:21.608Z,74.85
2017-10-30T14:49:56.428Z,75.37
2017-10-30T14:52:31.042Z,73.32
2017-10-30T14:55:05.678Z,75.13
2017-10-30T14:57:40.420Z,75.34
2017-10-30T15:00:20.198Z,75.20
2017-10-30T15:02:54.658Z,74.30
2017-10-30T15:05:29.494Z,75.03
2017-10-30T15:08:04.263Z,75.04
2017-10-30T15:10:38.899Z,74.07
2017-10-30T15:13:13.862Z,72.74
2017-10-30T15:15:48.206Z,74.96
2017-10-30T15:18:22.850Z,74.24
2017-10-30T15:20:57.270Z,74.65
2017-10-30T15:23:32.119Z,75.48
2017-10-30T15:26:06.564Z,76.52
2017-10-30T15:28:41.335Z,77.03
2017-10-30T15:31:15.787Z,78.43
2017-10-30T15:33:51.318Z,79.04
2017-10-30T15:36:25.963Z,79.34
2017-10-30T15:39:00.604Z,79.81
2017-10-30T15:41:36.171Z,79.41
2017-10-30T15:44:10.837Z,79.03
2017-10-30T15:46:45.378Z,79.79
2017-10-30T15:49:20.458Z,79.16
2017-10-30T15:51:54.919Z,79.67
2017-10-30T15:54:29.651Z,78.89
2017-10-30T15:57:04.767Z,79.39
2017-10-30T15:59:40.011Z,79.33
2017-10-30T16:02:15.607Z,79.82
2017-10-30T16:04:50.259Z,80.16
2017-10-30T16:07:24.774Z,80.62
2017-10-30T16:09:59.507Z,80.57
2017-10-30T16:12:34.310Z,80.85
2017-10-30T16:15:09.092Z,80.95
2017-10-30T16:17:44.707Z,81.10
2017-10-30T16:20:19.446Z,80.98
2017-10-30T16:22:54.067Z,81.63
2017-10-30T16:25:29.631Z,81.51
2017-10-30T16:28:04.319Z,81.09
2017-10-30T16:30:39.760Z,80.98
2017-10-30T16:33:14.849Z,81.26
2017-10-30T16:35:49.443Z,81.49
2017-10-30T16:38:23.769Z,81.70
2017-10-30T16:40:58.598Z,81.58
2017-10-30T16:43:32.975Z,81.24
2017-10-30T16:46:07.604Z,80.95
2017-10-30T16:48:42.023Z,81.99
2017-10-30T16:51:16.744Z,82.12
2017-10-30T16:53:51.702Z,81.22
2017-10-30T16:56:26.090Z,81.58
2017-10-30T16:59:00.744Z,81.56
2017-10-30T17:01:35.355Z,81.41
2017-10-30T17:04:09.803Z,81.08
2017-10-30T17:06:44.678Z,81.25
2017-10-30T17:09:19.503Z,81.21
2017-10-30T17:11:54.314Z,81.29
2017-10-30T17:14:28.942Z,81.33
2017-10-30T17:17:04.600Z,81.55
2017-10-30T17:19:40.160Z,81.82
2017-10-30T17:22:14.861Z,82.97
2017-10-30T17:24:49.795Z,83.56
2017-10-30T17:27:24.330Z,82.65
2017-10-30T17:29:59.099Z,81.05
2017-10-30T17:32:33.804Z,81.66
2017-10-30T17:35:08.459Z,82.73
2017-10-30T17:37:43.112Z,83.58
2017-10-30T17:40:17.751Z,84.17
2017-10-30T17:42:52.427Z,84.47
2017-10-30T17:45:26.951Z,84.64
2017-10-30T17:48:03.786Z,84.79
2017-10-30T17:50:38.423Z,85.13
2017-10-30T17:53:13.376Z,85.26
2017-10-30T17:55:48.149Z,85.32
2017-10-30T17:58:23.159Z,84.77
2017-10-30T18:00:57.971Z,84.54
2017-10-30T18:03:32.631Z,84.60
2017-10-30T18:06:07.399Z,84.82
2017-10-30T18:08:43.068Z,84.55
2017-10-30T18:11:17.679Z,84.41
2017-10-30T18:13:53.327Z,84.53
2017-10-30T18:16:28.175Z,84.59
2017-10-30T18:19:03.827Z,84.78
2017-10-30T18:21:38.502Z,84.77
2017-10-30T18:24:12.956Z,84.87
2017-10-30T18:26:48.266Z,84.25
2017-10-30T18:29:22.930Z,84.34
2017-10-30T18:31:57.698Z,84.44
2017-10-30T18:34:32.504Z,84.47
2017-10-30T18:37:07.114Z,84.49
2017-10-30T18:39:42.112Z,84.23
2017-10-30T18:42:16.663Z,83.49
2017-10-30T18:44:51.331Z,83.52
2017-10-30T18:47:26.171Z,83.67
2017-10-30T18:50:00.948Z,83.59
2017-10-30T18:52:35.799Z,83.20
2017-10-30T18:55:10.420Z,83.15
2017-10-30T18:57:45.043Z,82.79
2017-10-30T19:00:19.899Z,83.00
2017-10-30T19:02:54.703Z,83.15
2017-10-30T19:05:29.182Z,83.42
2017-10-30T19:08:03.896Z,83.74
2017-10-30T19:10:38.491Z,83.89
2017-10-30T19:13:13.198Z,84.27
2017-10-30T19:15:48.067Z,84.29
2017-10-30T19:18:22.863Z,84.60
2017-10-30T19:20:57.700Z,84.25
2017-10-30T19:23:32.459Z,84.27
2017-10-30T19:26:07.255Z,83.97
2017-10-30T19:28:41.964Z,84.11
2017-10-30T19:31:16.835Z,84.03
2017-10-30T19:33:55.815Z,83.95
2017-10-30T19:36:30.375Z,84.33
2017-10-30T19:39:04.503Z,84.07
2017-10-30T19:41:40.659Z,83.82
2017-10-30T19:44:15.256Z,84.05
2017-10-30T19:46:50.407Z,84.45
2017-10-30T19:49:25.083Z,84.58
2017-10-30T19:51:59.715Z,84.56
2017-10-30T19:54:34.246Z,84.67
2017-10-30T19:57:09.325Z,84.81
2017-10-30T19:59:44.032Z,84.69
2017-10-30T20:02:19.479Z,84.82
2017-10-30T20:04:54.403Z,85.09
2017-10-30T20:20:56.691Z,85.53
2017-10-30T20:23:31.375Z,85.39
2017-10-30T20:26:06.067Z,85.80
2017-10-30T20:28:40.803Z,86.07
2017-10-30T20:31:16.467Z,85.86
2017-10-30T20:33:50.987Z,85.74
2017-10-30T20:36:25.835Z,85.70
2017-10-30T20:39:00.591Z,85.38
2017-10-30T20:41:35.019Z,85.26
2017-10-30T20:44:09.790Z,84.99
2017-10-30T20:46:44.527Z,84.93
2017-10-30T20:49:19.315Z,84.86
2017-10-30T20:51:54.074Z,84.88
2017-10-30T20:54:28.889Z,84.82
2017-10-30T20:57:03.751Z,84.86
2017-10-30T20:59:38.654Z,84.65
2017-10-30T21:02:14.179Z,84.57
2017-10-30T21:04:49.100Z,85.04
2017-10-30T21:07:24.026Z,84.96
2017-10-30T21:09:58.602Z,84.09
2017-10-30T21:12:33.551Z,83.82
2017-10-30T21:15:08.423Z,83.69
2017-10-30T21:17:43.055Z,83.76
2017-10-30T21:20:17.775Z,83.95
2017-10-30T21:22:52.619Z,84.09
2017-10-30T21:25:27.351Z,84.28
2017-10-30T21:28:02.111Z,84.72
2017-10-30T21:30:36.839Z,84.97
2017-10-30T21:33:10.986Z,84.71
2017-10-30T21:35:46.063Z,84.63
2017-10-30T21:38:21.179Z,84.67
2017-10-30T21:40:55.544Z,84.76
2017-10-30T21:43:30.247Z,84.62
2017-10-30T21:46:04.574Z,84.53
2017-10-30T21:48:39.642Z,84.62
2017-10-30T21:51:14.267Z,84.69
2017-10-30T21:53:49.013Z,84.80
2017-10-30T21:56:23.695Z,84.86
2017-10-30T21:58:58.444Z,85.02
2017-10-30T22:01:33.179Z,84.99
2017-10-30T22:04:07.911Z,84.92
2017-10-30T22:06:42.647Z,84.96
2017-10-30T22:09:17.386Z,84.93
2017-10-30T22:11:52.103Z,84.99
2017-10-30T22:14:27.865Z,85.05
2017-10-30T22:17:02.603Z,85.27
2017-10-30T22:19:37.438Z,85.38
2017-10-30T22:22:13.044Z,85.32
2017-10-30T22:24:48.844Z,85.23
2017-10-30T22:27:23.519Z,85.27
2017-10-30T22:29:58.170Z,85.30
2017-10-30T22:32:32.879Z,85.10
2017-10-30T22:35:07.699Z,85.00
2017-10-30T22:37:42.443Z,85.07
2017-10-30T22:40:17.191Z,85.16
2017-10-30T22:42:51.995Z,85.35
2017-10-30T22:45:26.791Z,85.60
2017-10-30T22:48:01.407Z,85.66
2017-10-30T22:50:35.938Z,85.70
2017-10-30T22:53:10.786Z,85.88
2017-10-30T22:55:45.555Z,86.03
2017-10-30T22:58:21.319Z,86.08
2017-10-30T23:00:55.946Z,86.14
2017-10-30T23:03:30.568Z,86.24
2017-10-30T23:06:04.949Z,86.17
2017-10-30T23:08:39.906Z,85.98
2017-10-30T23:11:14.663Z,86.06
2017-10-30T23:13:49.383Z,86.18
2017-10-30T23:16:24.303Z,86.27
2017-10-30T23:18:58.947Z,86.21
2017-10-30T23:21:33.790Z,86.28
2017-10-30T23:24:09.059Z,86.21
2017-10-30T23:26:44.000Z,86.36
2017-10-30T23:29:18.706Z,86.59
2017-10-30T23:31:53.322Z,86.88
2017-10-30T23:34:27.915Z,87.05
2017-10-30T23:37:02.682Z,87.10
2017-10-30T23:39:37.324Z,87.36
2017-10-30T23:42:11.995Z,87.48
2017-10-30T23:44:46.695Z,87.71
2017-10-30T23:47:21.471Z,87.86
2017-10-30T23:49:56.451Z,87.92
2017-10-30T23:52:31.787Z,87.89
2017-10-30T23:55:06.363Z,87.82
2017-10-30T23:57:41.210Z,87.79
